sensor_id;sensor_type;location;lat;lon;timestamp;P1;durP1;ratioP1;P2;durP2;ratioP2
17844;SDS011;9047;53.486;10.218;2023-08-12T00:00:00;5.47;;;3.05;;
17844;SDS011;9047;53.486;10.218;2023-08-12T00:02:36;4.60;;;2.50;;
17844;SDS011;9047;53.486;10.218;2023-08-12T00:05:03;3.63;;;2.50;;
17844;SDS011;9047;53.486;10.218;2023-08-12T00:07:30;5.10;;;2.85;;
17844;SDS011;9047;53.486;10.218;2023-08-12T00:09:58;4.78;;;2.80;;
17844;SDS011;9047;53.486;10.218;2023-08-12T00:12:25;7.25;;;2.40;;
17844;SDS011;9047;53.486;10.218;2023-08-12T00:14:52;5.68;;;2.70;;
17844;SDS011;9047;53.486;10.218;2023-08-12T00:17:20;4.78;;;2.60;;
17844;SDS011;9047;53.486;10.218;2023-08-12T00:19:47;4.65;;;2.65;;
17844;SDS011;9047;53.486;10.218;2023-08-12T00:22:15;2.90;;;2.60;;
17844;SDS011;9047;53.486;10.218;2023-08-12T00:24:43;5.00;;;2.70;;
17844;SDS011;9047;53.486;10.218;2023-08-12T00:27:10;4.03;;;2.90;;
17844;SDS011;9047;53.486;10.218;2023-08-12T00:29:37;4.32;;;2.90;;
17844;SDS011;9047;53.486;10.218;2023-08-12T00:32:04;5.05;;;2.83;;
17844;SDS011;9047;53.486;10.218;2023-08-12T00:34:33;5.25;;;2.88;;
17844;SDS011;9047;53.486;10.218;2023-08-12T00:36:59;4.32;;;2.88;;
17844;SDS011;9047;53.486;10.218;2023-08-12T00:39:26;3.25;;;2.40;;
17844;SDS011;9047;53.486;10.218;2023-08-12T00:41:54;9.82;;;2.70;;
17844;SDS011;9047;53.486;10.218;2023-08-12T00:44:21;6.55;;;2.67;;
17844;SDS011;9047;53.486;10.218;2023-08-12T00:46:48;4.30;;;2.65;;
17844;SDS011;9047;53.486;10.218;2023-08-12T00:49:16;4.70;;;2.83;;
17844;SDS011;9047;53.486;10.218;2023-08-12T00:51:44;4.72;;;2.72;;
17844;SDS011;9047;53.486;10.218;2023-08-12T00:54:13;5.07;;;2.60;;
17844;SDS011;9047;53.486;10.218;2023-08-12T00:56:40;5.72;;;2.60;;
17844;SDS011;9047;53.486;10.218;2023-08-12T00:59:08;3.97;;;2.85;;
17844;SDS011;9047;53.486;10.218;2023-08-12T01:01:36;3.92;;;2.80;;
17844;SDS011;9047;53.486;10.218;2023-08-12T01:04:05;4.45;;;2.70;;
17844;SDS011;9047;53.486;10.218;2023-08-12T01:06:33;3.58;;;2.58;;
17844;SDS011;9047;53.486;10.218;2023-08-12T01:09:01;5.45;;;2.83;;
17844;SDS011;9047;53.486;10.218;2023-08-12T01:11:32;4.45;;;2.50;;
17844;SDS011;9047;53.486;10.218;2023-08-12T01:14:04;4.00;;;2.30;;
17844;SDS011;9047;53.486;10.218;2023-08-12T01:16:36;5.20;;;2.60;;
17844;SDS011;9047;53.486;10.218;2023-08-12T01:19:06;4.45;;;2.95;;
17844;SDS011;9047;53.486;10.218;2023-08-12T01:21:36;4.15;;;2.42;;
17844;SDS011;9047;53.486;10.218;2023-08-12T01:24:09;3.90;;;2.60;;
17844;SDS011;9047;53.486;10.218;2023-08-12T01:26:38;4.50;;;2.75;;
17844;SDS011;9047;53.486;10.218;2023-08-12T01:29:04;6.68;;;2.70;;
17844;SDS011;9047;53.486;10.218;2023-08-12T01:31:32;4.50;;;2.70;;
17844;SDS011;9047;53.486;10.218;2023-08-12T01:34:06;7.38;;;2.60;;
17844;SDS011;9047;53.486;10.218;2023-08-12T01:36:38;4.55;;;2.80;;
17844;SDS011;9047;53.486;10.218;2023-08-12T01:39:07;3.63;;;3.08;;
17844;SDS011;9047;53.486;10.218;2023-08-12T01:41:37;5.10;;;2.67;;
17844;SDS011;9047;53.486;10.218;2023-08-12T01:44:04;4.35;;;2.88;;
17844;SDS011;9047;53.486;10.218;2023-08-12T01:46:32;4.05;;;2.60;;
17844;SDS011;9047;53.486;10.218;2023-08-12T01:49:01;3.30;;;2.72;;
17844;SDS011;9047;53.486;10.218;2023-08-12T01:51:29;4.90;;;2.85;;
17844;SDS011;9047;53.486;10.218;2023-08-12T01:53:56;8.00;;;2.80;;
17844;SDS011;9047;53.486;10.218;2023-08-12T01:56:24;4.47;;;2.92;;
17844;SDS011;9047;53.486;10.218;2023-08-12T01:58:51;4.45;;;2.70;;
17844;SDS011;9047;53.486;10.218;2023-08-12T02:01:18;3.75;;;2.60;;
17844;SDS011;9047;53.486;10.218;2023-08-12T02:03:45;6.00;;;2.90;;
17844;SDS011;9047;53.486;10.218;2023-08-12T02:06:11;4.45;;;2.80;;
17844;SDS011;9047;53.486;10.218;2023-08-12T02:08:39;5.28;;;2.88;;
17844;SDS011;9047;53.486;10.218;2023-08-12T02:11:06;5.45;;;2.80;;
17844;SDS011;9047;53.486;10.218;2023-08-12T02:13:34;6.90;;;2.50;;
17844;SDS011;9047;53.486;10.218;2023-08-12T02:16:01;5.05;;;2.95;;
17844;SDS011;9047;53.486;10.218;2023-08-12T02:18:28;3.63;;;2.63;;
17844;SDS011;9047;53.486;10.218;2023-08-12T02:20:55;6.22;;;3.10;;
17844;SDS011;9047;53.486;10.218;2023-08-12T02:23:22;4.43;;;2.80;;
17844;SDS011;9047;53.486;10.218;2023-08-12T02:25:48;6.47;;;2.85;;
17844;SDS011;9047;53.486;10.218;2023-08-12T02:28:15;4.25;;;2.67;;
17844;SDS011;9047;53.486;10.218;2023-08-12T02:30:44;5.68;;;2.83;;
17844;SDS011;9047;53.486;10.218;2023-08-12T02:33:10;4.30;;;2.80;;
17844;SDS011;9047;53.486;10.218;2023-08-12T02:35:38;4.85;;;3.08;;
17844;SDS011;9047;53.486;10.218;2023-08-12T02:38:05;5.72;;;2.72;;
17844;SDS011;9047;53.486;10.218;2023-08-12T02:40:33;6.10;;;3.00;;
17844;SDS011;9047;53.486;10.218;2023-08-12T02:43:00;5.32;;;3.35;;
17844;SDS011;9047;53.486;10.218;2023-08-12T02:45:27;4.53;;;3.05;;
17844;SDS011;9047;53.486;10.218;2023-08-12T02:47:55;4.78;;;3.00;;
17844;SDS011;9047;53.486;10.218;2023-08-12T02:50:21;4.07;;;2.78;;
17844;SDS011;9047;53.486;10.218;2023-08-12T02:52:49;4.00;;;3.00;;
17844;SDS011;9047;53.486;10.218;2023-08-12T02:55:16;5.20;;;2.92;;
17844;SDS011;9047;53.486;10.218;2023-08-12T02:57:43;3.17;;;2.70;;
17844;SDS011;9047;53.486;10.218;2023-08-12T03:00:11;4.55;;;2.97;;
17844;SDS011;9047;53.486;10.218;2023-08-12T03:02:41;4.60;;;2.83;;
17844;SDS011;9047;53.486;10.218;2023-08-12T03:05:09;4.22;;;2.90;;
17844;SDS011;9047;53.486;10.218;2023-08-12T03:07:36;4.70;;;3.25;;
17844;SDS011;9047;53.486;10.218;2023-08-12T03:10:03;3.95;;;3.08;;
17844;SDS011;9047;53.486;10.218;2023-08-12T03:12:31;3.15;;;2.75;;
17844;SDS011;9047;53.486;10.218;2023-08-12T03:14:58;4.53;;;3.42;;
17844;SDS011;9047;53.486;10.218;2023-08-12T03:17:25;3.70;;;2.90;;
17844;SDS011;9047;53.486;10.218;2023-08-12T03:19:51;7.00;;;3.15;;
17844;SDS011;9047;53.486;10.218;2023-08-12T03:22:20;5.70;;;3.30;;
17844;SDS011;9047;53.486;10.218;2023-08-12T03:24:47;4.28;;;3.10;;
17844;SDS011;9047;53.486;10.218;2023-08-12T03:27:16;4.78;;;3.40;;
17844;SDS011;9047;53.486;10.218;2023-08-12T03:29:42;5.20;;;3.10;;
17844;SDS011;9047;53.486;10.218;2023-08-12T03:32:09;3.42;;;2.70;;
17844;SDS011;9047;53.486;10.218;2023-08-12T03:34:36;5.00;;;3.30;;
17844;SDS011;9047;53.486;10.218;2023-08-12T03:37:03;4.38;;;3.20;;
17844;SDS011;9047;53.486;10.218;2023-08-12T03:39:32;5.32;;;3.42;;
17844;SDS011;9047;53.486;10.218;2023-08-12T03:41:59;6.85;;;3.58;;
17844;SDS011;9047;53.486;10.218;2023-08-12T03:44:26;5.97;;;3.42;;
17844;SDS011;9047;53.486;10.218;2023-08-12T03:46:53;7.35;;;3.75;;
17844;SDS011;9047;53.486;10.218;2023-08-12T03:49:19;4.40;;;3.30;;
17844;SDS011;9047;53.486;10.218;2023-08-12T03:51:46;4.13;;;3.30;;
17844;SDS011;9047;53.486;10.218;2023-08-12T03:54:14;3.90;;;3.00;;
17844;SDS011;9047;53.486;10.218;2023-08-12T03:56:42;5.45;;;3.40;;
17844;SDS011;9047;53.486;10.218;2023-08-12T03:59:10;5.95;;;3.50;;
17844;SDS011;9047;53.486;10.218;2023-08-12T04:01:37;5.72;;;3.60;;
17844;SDS011;9047;53.486;10.218;2023-08-12T04:04:04;3.58;;;3.05;;
17844;SDS011;9047;53.486;10.218;2023-08-12T04:06:31;3.08;;;2.78;;
17844;SDS011;9047;53.486;10.218;2023-08-12T04:08:58;3.70;;;3.15;;
17844;SDS011;9047;53.486;10.218;2023-08-12T04:11:25;3.83;;;3.10;;
17844;SDS011;9047;53.486;10.218;2023-08-12T04:13:53;4.95;;;3.05;;
17844;SDS011;9047;53.486;10.218;2023-08-12T04:16:19;4.50;;;3.08;;
17844;SDS011;9047;53.486;10.218;2023-08-12T04:18:46;4.60;;;3.00;;
17844;SDS011;9047;53.486;10.218;2023-08-12T04:21:13;3.47;;;2.90;;
17844;SDS011;9047;53.486;10.218;2023-08-12T04:23:40;4.63;;;3.10;;
17844;SDS011;9047;53.486;10.218;2023-08-12T04:26:07;4.45;;;2.97;;
17844;SDS011;9047;53.486;10.218;2023-08-12T04:28:34;5.50;;;2.90;;
17844;SDS011;9047;53.486;10.218;2023-08-12T04:31:05;5.10;;;3.03;;
17844;SDS011;9047;53.486;10.218;2023-08-12T04:33:32;5.57;;;3.00;;
17844;SDS011;9047;53.486;10.218;2023-08-12T04:35:59;4.10;;;3.00;;
17844;SDS011;9047;53.486;10.218;2023-08-12T04:38:26;4.47;;;3.33;;
17844;SDS011;9047;53.486;10.218;2023-08-12T04:40:53;8.25;;;3.58;;
17844;SDS011;9047;53.486;10.218;2023-08-12T04:43:20;5.85;;;3.33;;
17844;SDS011;9047;53.486;10.218;2023-08-12T04:45:47;7.32;;;3.30;;
17844;SDS011;9047;53.486;10.218;2023-08-12T04:48:15;5.38;;;3.63;;
17844;SDS011;9047;53.486;10.218;2023-08-12T04:50:42;4.80;;;3.47;;
17844;SDS011;9047;53.486;10.218;2023-08-12T04:53:09;4.35;;;3.10;;
17844;SDS011;9047;53.486;10.218;2023-08-12T04:55:36;4.68;;;3.20;;
17844;SDS011;9047;53.486;10.218;2023-08-12T04:58:03;4.50;;;2.90;;
17844;SDS011;9047;53.486;10.218;2023-08-12T05:00:32;4.38;;;3.03;;
17844;SDS011;9047;53.486;10.218;2023-08-12T05:02:59;4.68;;;3.67;;
17844;SDS011;9047;53.486;10.218;2023-08-12T05:05:27;4.22;;;3.00;;
17844;SDS011;9047;53.486;10.218;2023-08-12T05:07:54;3.70;;;3.30;;
17844;SDS011;9047;53.486;10.218;2023-08-12T05:10:21;6.43;;;3.38;;
17844;SDS011;9047;53.486;10.218;2023-08-12T05:12:48;5.00;;;3.38;;
17844;SDS011;9047;53.486;10.218;2023-08-12T05:15:17;5.28;;;3.58;;
17844;SDS011;9047;53.486;10.218;2023-08-12T05:17:43;6.20;;;3.50;;
17844;SDS011;9047;53.486;10.218;2023-08-12T05:20:10;4.47;;;3.08;;
17844;SDS011;9047;53.486;10.218;2023-08-12T05:22:39;4.13;;;3.05;;
17844;SDS011;9047;53.486;10.218;2023-08-12T05:25:07;3.78;;;3.38;;
17844;SDS011;9047;53.486;10.218;2023-08-12T05:27:34;5.18;;;3.30;;
17844;SDS011;9047;53.486;10.218;2023-08-12T05:30:02;4.57;;;3.25;;
17844;SDS011;9047;53.486;10.218;2023-08-12T05:32:30;4.50;;;3.15;;
17844;SDS011;9047;53.486;10.218;2023-08-12T05:34:57;3.80;;;3.40;;
17844;SDS011;9047;53.486;10.218;2023-08-12T05:37:24;6.18;;;3.17;;
17844;SDS011;9047;53.486;10.218;2023-08-12T05:39:52;4.18;;;3.20;;
17844;SDS011;9047;53.486;10.218;2023-08-12T05:42:19;6.90;;;3.33;;
17844;SDS011;9047;53.486;10.218;2023-08-12T05:44:46;4.70;;;3.22;;
17844;SDS011;9047;53.486;10.218;2023-08-12T05:47:12;5.47;;;3.30;;
17844;SDS011;9047;53.486;10.218;2023-08-12T05:49:40;4.25;;;3.50;;
17844;SDS011;9047;53.486;10.218;2023-08-12T05:54:40;5.03;;;3.55;;
17844;SDS011;9047;53.486;10.218;2023-08-12T05:57:08;4.60;;;3.33;;
17844;SDS011;9047;53.486;10.218;2023-08-12T05:59:35;5.18;;;3.55;;
17844;SDS011;9047;53.486;10.218;2023-08-12T06:02:03;6.78;;;3.60;;
17844;SDS011;9047;53.486;10.218;2023-08-12T06:04:30;4.95;;;3.78;;
17844;SDS011;9047;53.486;10.218;2023-08-12T06:06:57;6.15;;;3.70;;
17844;SDS011;9047;53.486;10.218;2023-08-12T06:09:24;7.38;;;3.47;;
17844;SDS011;9047;53.486;10.218;2023-08-12T06:11:51;8.80;;;4.15;;
17844;SDS011;9047;53.486;10.218;2023-08-12T06:14:19;5.82;;;3.70;;
17844;SDS011;9047;53.486;10.218;2023-08-12T06:16:46;6.30;;;3.90;;
17844;SDS011;9047;53.486;10.218;2023-08-12T06:19:13;5.97;;;4.10;;
17844;SDS011;9047;53.486;10.218;2023-08-12T06:21:40;6.18;;;4.13;;
17844;SDS011;9047;53.486;10.218;2023-08-12T06:24:06;8.07;;;4.13;;
17844;SDS011;9047;53.486;10.218;2023-08-12T06:26:33;4.72;;;3.92;;
17844;SDS011;9047;53.486;10.218;2023-08-12T06:29:00;5.20;;;3.95;;
17844;SDS011;9047;53.486;10.218;2023-08-12T06:31:28;6.05;;;4.28;;
17844;SDS011;9047;53.486;10.218;2023-08-12T06:33:55;6.55;;;4.13;;
17844;SDS011;9047;53.486;10.218;2023-08-12T06:36:22;6.50;;;4.40;;
17844;SDS011;9047;53.486;10.218;2023-08-12T06:38:49;6.80;;;4.30;;
17844;SDS011;9047;53.486;10.218;2023-08-12T06:41:16;8.18;;;4.68;;
17844;SDS011;9047;53.486;10.218;2023-08-12T06:43:43;6.75;;;4.50;;
17844;SDS011;9047;53.486;10.218;2023-08-12T06:46:10;5.50;;;4.32;;
17844;SDS011;9047;53.486;10.218;2023-08-12T06:48:38;7.45;;;4.85;;
17844;SDS011;9047;53.486;10.218;2023-08-12T06:51:05;6.55;;;4.57;;
17844;SDS011;9047;53.486;10.218;2023-08-12T06:53:35;7.70;;;4.90;;
17844;SDS011;9047;53.486;10.218;2023-08-12T06:56:02;5.68;;;4.32;;
17844;SDS011;9047;53.486;10.218;2023-08-12T06:58:29;7.88;;;4.53;;
17844;SDS011;9047;53.486;10.218;2023-08-12T07:00:56;6.55;;;4.35;;
17844;SDS011;9047;53.486;10.218;2023-08-12T07:03:24;6.45;;;4.80;;
17844;SDS011;9047;53.486;10.218;2023-08-12T07:05:53;6.63;;;5.18;;
17844;SDS011;9047;53.486;10.218;2023-08-12T07:08:19;11.20;;;5.38;;
17844;SDS011;9047;53.486;10.218;2023-08-12T07:10:46;5.78;;;4.93;;
17844;SDS011;9047;53.486;10.218;2023-08-12T07:13:13;8.55;;;4.80;;
17844;SDS011;9047;53.486;10.218;2023-08-12T07:15:40;6.30;;;5.10;;
17844;SDS011;9047;53.486;10.218;2023-08-12T07:18:07;8.27;;;5.45;;
17844;SDS011;9047;53.486;10.218;2023-08-12T07:20:34;7.15;;;5.07;;
17844;SDS011;9047;53.486;10.218;2023-08-12T07:23:02;7.28;;;5.00;;
17844;SDS011;9047;53.486;10.218;2023-08-12T07:25:29;7.93;;;5.30;;
17844;SDS011;9047;53.486;10.218;2023-08-12T07:27:55;5.97;;;5.38;;
17844;SDS011;9047;53.486;10.218;2023-08-12T07:30:23;7.25;;;5.30;;
17844;SDS011;9047;53.486;10.218;2023-08-12T07:32:50;6.47;;;5.20;;
17844;SDS011;9047;53.486;10.218;2023-08-12T07:35:17;7.95;;;5.15;;
17844;SDS011;9047;53.486;10.218;2023-08-12T07:37:44;7.57;;;5.70;;
17844;SDS011;9047;53.486;10.218;2023-08-12T07:40:12;10.02;;;5.97;;
17844;SDS011;9047;53.486;10.218;2023-08-12T07:42:39;9.75;;;6.00;;
17844;SDS011;9047;53.486;10.218;2023-08-12T07:45:06;8.05;;;6.05;;
17844;SDS011;9047;53.486;10.218;2023-08-12T07:47:34;11.68;;;6.63;;
17844;SDS011;9047;53.486;10.218;2023-08-12T07:50:01;8.40;;;6.72;;
17844;SDS011;9047;53.486;10.218;2023-08-12T07:52:28;10.45;;;6.75;;
17844;SDS011;9047;53.486;10.218;2023-08-12T07:54:55;11.65;;;7.60;;
17844;SDS011;9047;53.486;10.218;2023-08-12T07:57:23;12.32;;;8.10;;
17844;SDS011;9047;53.486;10.218;2023-08-12T07:59:50;10.77;;;7.25;;
17844;SDS011;9047;53.486;10.218;2023-08-12T08:02:17;9.13;;;7.30;;
17844;SDS011;9047;53.486;10.218;2023-08-12T08:04:44;10.98;;;7.30;;
17844;SDS011;9047;53.486;10.218;2023-08-12T08:07:14;9.45;;;6.80;;
17844;SDS011;9047;53.486;10.218;2023-08-12T08:09:40;8.38;;;6.80;;
17844;SDS011;9047;53.486;10.218;2023-08-12T08:12:07;8.25;;;6.75;;
17844;SDS011;9047;53.486;10.218;2023-08-12T08:14:36;9.13;;;7.10;;
17844;SDS011;9047;53.486;10.218;2023-08-12T08:17:03;9.57;;;7.00;;
17844;SDS011;9047;53.486;10.218;2023-08-12T08:19:30;8.18;;;6.28;;
17844;SDS011;9047;53.486;10.218;2023-08-12T08:21:57;11.20;;;6.65;;
17844;SDS011;9047;53.486;10.218;2023-08-12T08:24:24;9.10;;;6.45;;
17844;SDS011;9047;53.486;10.218;2023-08-12T08:26:51;9.00;;;6.38;;
17844;SDS011;9047;53.486;10.218;2023-08-12T08:29:18;9.63;;;7.13;;
17844;SDS011;9047;53.486;10.218;2023-08-12T08:31:46;8.25;;;7.22;;
17844;SDS011;9047;53.486;10.218;2023-08-12T08:34:13;10.48;;;7.50;;
17844;SDS011;9047;53.486;10.218;2023-08-12T08:36:42;12.13;;;7.75;;
17844;SDS011;9047;53.486;10.218;2023-08-12T08:39:10;12.32;;;8.07;;
17844;SDS011;9047;53.486;10.218;2023-08-12T08:41:37;9.43;;;7.18;;
17844;SDS011;9047;53.486;10.218;2023-08-12T08:44:06;10.55;;;7.68;;
17844;SDS011;9047;53.486;10.218;2023-08-12T08:46:40;8.63;;;7.72;;
17844;SDS011;9047;53.486;10.218;2023-08-12T08:49:09;9.80;;;7.90;;
17844;SDS011;9047;53.486;10.218;2023-08-12T08:51:38;9.10;;;7.07;;
17844;SDS011;9047;53.486;10.218;2023-08-12T08:54:05;10.67;;;7.40;;
17844;SDS011;9047;53.486;10.218;2023-08-12T08:56:32;7.68;;;6.50;;
17844;SDS011;9047;53.486;10.218;2023-08-12T08:58:59;9.50;;;6.90;;
17844;SDS011;9047;53.486;10.218;2023-08-12T09:01:26;9.25;;;6.78;;
17844;SDS011;9047;53.486;10.218;2023-08-12T09:03:54;9.70;;;6.40;;
17844;SDS011;9047;53.486;10.218;2023-08-12T09:06:24;8.30;;;6.60;;
17844;SDS011;9047;53.486;10.218;2023-08-12T09:08:52;12.38;;;7.03;;
17844;SDS011;9047;53.486;10.218;2023-08-12T09:11:20;7.85;;;6.45;;
17844;SDS011;9047;53.486;10.218;2023-08-12T09:13:48;8.68;;;6.82;;
17844;SDS011;9047;53.486;10.218;2023-08-12T09:16:15;9.15;;;6.93;;
17844;SDS011;9047;53.486;10.218;2023-08-12T09:18:44;7.88;;;6.50;;
17844;SDS011;9047;53.486;10.218;2023-08-12T09:21:11;7.65;;;6.30;;
17844;SDS011;9047;53.486;10.218;2023-08-12T09:23:39;9.50;;;6.63;;
17844;SDS011;9047;53.486;10.218;2023-08-12T09:26:15;8.80;;;6.22;;
17844;SDS011;9047;53.486;10.218;2023-08-12T09:28:45;10.85;;;7.30;;
17844;SDS011;9047;53.486;10.218;2023-08-12T09:31:21;8.70;;;6.78;;
17844;SDS011;9047;53.486;10.218;2023-08-12T09:33:50;8.13;;;6.32;;
17844;SDS011;9047;53.486;10.218;2023-08-12T09:36:17;8.88;;;6.93;;
17844;SDS011;9047;53.486;10.218;2023-08-12T09:38:46;10.15;;;6.68;;
17844;SDS011;9047;53.486;10.218;2023-08-12T09:41:15;9.15;;;7.28;;
17844;SDS011;9047;53.486;10.218;2023-08-12T09:43:42;9.73;;;6.63;;
17844;SDS011;9047;53.486;10.218;2023-08-12T09:46:11;10.98;;;8.55;;
17844;SDS011;9047;53.486;10.218;2023-08-12T09:48:53;10.02;;;7.88;;
17844;SDS011;9047;53.486;10.218;2023-08-12T09:51:20;12.65;;;7.57;;
17844;SDS011;9047;53.486;10.218;2023-08-12T09:53:48;12.52;;;7.70;;
17844;SDS011;9047;53.486;10.218;2023-08-12T09:56:17;11.38;;;7.57;;
17844;SDS011;9047;53.486;10.218;2023-08-12T09:58:46;11.10;;;7.25;;
17844;SDS011;9047;53.486;10.218;2023-08-12T10:01:15;8.55;;;6.20;;
17844;SDS011;9047;53.486;10.218;2023-08-12T10:03:45;9.27;;;7.70;;
17844;SDS011;9047;53.486;10.218;2023-08-12T10:06:15;14.38;;;8.38;;
17844;SDS011;9047;53.486;10.218;2023-08-12T10:08:43;9.15;;;6.57;;
17844;SDS011;9047;53.486;10.218;2023-08-12T10:11:13;10.60;;;7.95;;
17844;SDS011;9047;53.486;10.218;2023-08-12T10:13:40;9.75;;;7.30;;
17844;SDS011;9047;53.486;10.218;2023-08-12T10:16:07;10.75;;;7.93;;
17844;SDS011;9047;53.486;10.218;2023-08-12T10:18:35;8.57;;;7.05;;
17844;SDS011;9047;53.486;10.218;2023-08-12T10:21:02;10.70;;;8.05;;
17844;SDS011;9047;53.486;10.218;2023-08-12T10:23:30;13.85;;;8.13;;
17844;SDS011;9047;53.486;10.218;2023-08-12T10:25:57;14.55;;;8.55;;
17844;SDS011;9047;53.486;10.218;2023-08-12T10:28:30;10.75;;;8.10;;
17844;SDS011;9047;53.486;10.218;2023-08-12T10:31:01;11.50;;;8.40;;
17844;SDS011;9047;53.486;10.218;2023-08-12T10:33:29;10.02;;;7.22;;
17844;SDS011;9047;53.486;10.218;2023-08-12T10:35:56;10.30;;;7.72;;
17844;SDS011;9047;53.486;10.218;2023-08-12T10:38:23;9.90;;;7.80;;
17844;SDS011;9047;53.486;10.218;2023-08-12T10:40:51;11.32;;;7.15;;
17844;SDS011;9047;53.486;10.218;2023-08-12T10:43:18;11.80;;;8.77;;
17844;SDS011;9047;53.486;10.218;2023-08-12T10:45:47;12.05;;;9.23;;
17844;SDS011;9047;53.486;10.218;2023-08-12T10:48:18;10.88;;;8.35;;
17844;SDS011;9047;53.486;10.218;2023-08-12T10:50:48;9.45;;;7.50;;
17844;SDS011;9047;53.486;10.218;2023-08-12T10:53:21;10.25;;;7.88;;
17844;SDS011;9047;53.486;10.218;2023-08-12T10:55:50;12.77;;;8.07;;
17844;SDS011;9047;53.486;10.218;2023-08-12T10:58:24;11.02;;;7.93;;
17844;SDS011;9047;53.486;10.218;2023-08-12T11:00:54;11.32;;;8.93;;
17844;SDS011;9047;53.486;10.218;2023-08-12T11:03:22;11.07;;;8.48;;
17844;SDS011;9047;53.486;10.218;2023-08-12T11:05:49;11.73;;;9.05;;
17844;SDS011;9047;53.486;10.218;2023-08-12T11:08:23;11.20;;;8.02;;
17844;SDS011;9047;53.486;10.218;2023-08-12T11:10:52;9.80;;;7.97;;
17844;SDS011;9047;53.486;10.218;2023-08-12T11:13:20;12.27;;;8.85;;
17844;SDS011;9047;53.486;10.218;2023-08-12T11:15:47;10.18;;;8.07;;
17844;SDS011;9047;53.486;10.218;2023-08-12T11:18:16;12.45;;;7.90;;
17844;SDS011;9047;53.486;10.218;2023-08-12T11:20:44;11.30;;;6.97;;
17844;SDS011;9047;53.486;10.218;2023-08-12T11:23:12;8.20;;;6.60;;
17844;SDS011;9047;53.486;10.218;2023-08-12T11:25:42;7.22;;;6.50;;
17844;SDS011;9047;53.486;10.218;2023-08-12T11:28:10;7.72;;;5.72;;
17844;SDS011;9047;53.486;10.218;2023-08-12T11:30:39;5.97;;;4.40;;
17844;SDS011;9047;53.486;10.218;2023-08-12T11:33:08;6.95;;;3.90;;
17844;SDS011;9047;53.486;10.218;2023-08-12T11:35:36;5.75;;;4.00;;
17844;SDS011;9047;53.486;10.218;2023-08-12T11:38:05;5.88;;;3.60;;
17844;SDS011;9047;53.486;10.218;2023-08-12T11:40:33;6.63;;;3.70;;
17844;SDS011;9047;53.486;10.218;2023-08-12T11:43:01;4.85;;;3.20;;
17844;SDS011;9047;53.486;10.218;2023-08-12T11:45:28;4.78;;;3.60;;
17844;SDS011;9047;53.486;10.218;2023-08-12T11:47:55;4.75;;;3.88;;
17844;SDS011;9047;53.486;10.218;2023-08-12T11:50:22;4.65;;;4.10;;
17844;SDS011;9047;53.486;10.218;2023-08-12T11:52:52;8.02;;;4.20;;
17844;SDS011;9047;53.486;10.218;2023-08-12T11:55:21;5.28;;;4.43;;
17844;SDS011;9047;53.486;10.218;2023-08-12T11:57:49;6.63;;;4.80;;
17844;SDS011;9047;53.486;10.218;2023-08-12T12:00:16;5.65;;;4.28;;
17844;SDS011;9047;53.486;10.218;2023-08-12T12:02:46;6.25;;;4.50;;
17844;SDS011;9047;53.486;10.218;2023-08-12T12:05:15;6.78;;;4.93;;
17844;SDS011;9047;53.486;10.218;2023-08-12T12:07:42;7.20;;;5.20;;
17844;SDS011;9047;53.486;10.218;2023-08-12T12:10:16;5.57;;;4.03;;
17844;SDS011;9047;53.486;10.218;2023-08-12T12:12:44;5.93;;;4.65;;
17844;SDS011;9047;53.486;10.218;2023-08-12T12:15:12;6.20;;;4.57;;
17844;SDS011;9047;53.486;10.218;2023-08-12T12:17:41;6.80;;;4.82;;
17844;SDS011;9047;53.486;10.218;2023-08-12T12:20:08;7.20;;;4.20;;
17844;SDS011;9047;53.486;10.218;2023-08-12T12:22:37;5.32;;;4.10;;
17844;SDS011;9047;53.486;10.218;2023-08-12T12:25:06;5.93;;;4.00;;
17844;SDS011;9047;53.486;10.218;2023-08-12T12:30:20;7.60;;;4.93;;
17844;SDS011;9047;53.486;10.218;2023-08-12T12:32:48;7.32;;;4.53;;
17844;SDS011;9047;53.486;10.218;2023-08-12T12:35:17;5.63;;;4.65;;
17844;SDS011;9047;53.486;10.218;2023-08-12T12:37:45;6.10;;;4.85;;
17844;SDS011;9047;53.486;10.218;2023-08-12T12:40:12;5.25;;;4.53;;
17844;SDS011;9047;53.486;10.218;2023-08-12T12:42:41;6.28;;;4.57;;
17844;SDS011;9047;53.486;10.218;2023-08-12T12:45:10;7.38;;;5.07;;
17844;SDS011;9047;53.486;10.218;2023-08-12T12:47:41;6.40;;;4.50;;
17844;SDS011;9047;53.486;10.218;2023-08-12T12:50:08;6.47;;;4.50;;
17844;SDS011;9047;53.486;10.218;2023-08-12T12:52:36;6.38;;;4.80;;
17844;SDS011;9047;53.486;10.218;2023-08-12T12:55:03;4.38;;;3.88;;
17844;SDS011;9047;53.486;10.218;2023-08-12T12:57:30;6.15;;;3.80;;
17844;SDS011;9047;53.486;10.218;2023-08-12T12:59:57;4.20;;;3.60;;
17844;SDS011;9047;53.486;10.218;2023-08-12T13:02:25;4.38;;;3.60;;
17844;SDS011;9047;53.486;10.218;2023-08-12T13:04:52;4.93;;;3.80;;
17844;SDS011;9047;53.486;10.218;2023-08-12T13:07:18;4.65;;;3.47;;
17844;SDS011;9047;53.486;10.218;2023-08-12T13:09:45;4.55;;;3.40;;
17844;SDS011;9047;53.486;10.218;2023-08-12T13:12:12;6.18;;;3.80;;
17844;SDS011;9047;53.486;10.218;2023-08-12T13:14:39;5.22;;;4.07;;
17844;SDS011;9047;53.486;10.218;2023-08-12T13:17:10;4.82;;;4.00;;
17844;SDS011;9047;53.486;10.218;2023-08-12T13:19:56;5.50;;;4.28;;
17844;SDS011;9047;53.486;10.218;2023-08-12T13:22:23;4.15;;;3.50;;
17844;SDS011;9047;53.486;10.218;2023-08-12T13:24:49;5.65;;;4.25;;
17844;SDS011;9047;53.486;10.218;2023-08-12T13:27:16;8.45;;;4.47;;
17844;SDS011;9047;53.486;10.218;2023-08-12T13:29:43;4.25;;;3.65;;
17844;SDS011;9047;53.486;10.218;2023-08-12T13:32:10;7.55;;;5.07;;
17844;SDS011;9047;53.486;10.218;2023-08-12T13:34:37;6.22;;;5.40;;
17844;SDS011;9047;53.486;10.218;2023-08-12T13:37:05;7.65;;;5.25;;
17844;SDS011;9047;53.486;10.218;2023-08-12T13:39:32;8.18;;;5.43;;
17844;SDS011;9047;53.486;10.218;2023-08-12T13:41:59;7.30;;;5.78;;
17844;SDS011;9047;53.486;10.218;2023-08-12T13:44:29;7.93;;;6.75;;
17844;SDS011;9047;53.486;10.218;2023-08-12T13:46:55;8.15;;;6.90;;
17844;SDS011;9047;53.486;10.218;2023-08-12T13:49:22;8.75;;;7.22;;
17844;SDS011;9047;53.486;10.218;2023-08-12T13:51:49;10.40;;;8.23;;
17844;SDS011;9047;53.486;10.218;2023-08-12T13:54:18;10.68;;;8.80;;
17844;SDS011;9047;53.486;10.218;2023-08-12T13:56:44;11.13;;;8.98;;
17844;SDS011;9047;53.486;10.218;2023-08-12T13:59:11;13.35;;;9.70;;
17844;SDS011;9047;53.486;10.218;2023-08-12T14:01:38;10.68;;;7.70;;
17844;SDS011;9047;53.486;10.218;2023-08-12T14:04:05;16.20;;;11.77;;
17844;SDS011;9047;53.486;10.218;2023-08-12T14:06:32;18.42;;;13.07;;
17844;SDS011;9047;53.486;10.218;2023-08-12T14:08:58;17.85;;;12.75;;
17844;SDS011;9047;53.486;10.218;2023-08-12T14:11:27;17.58;;;12.88;;
17844;SDS011;9047;53.486;10.218;2023-08-12T14:13:57;15.20;;;10.60;;
17844;SDS011;9047;53.486;10.218;2023-08-12T14:16:24;12.77;;;8.70;;
17844;SDS011;9047;53.486;10.218;2023-08-12T14:18:50;12.50;;;8.07;;
17844;SDS011;9047;53.486;10.218;2023-08-12T14:21:17;12.68;;;9.43;;
17844;SDS011;9047;53.486;10.218;2023-08-12T14:23:44;11.75;;;9.80;;
17844;SDS011;9047;53.486;10.218;2023-08-12T14:26:11;10.98;;;8.55;;
17844;SDS011;9047;53.486;10.218;2023-08-12T14:28:39;10.73;;;8.40;;
17844;SDS011;9047;53.486;10.218;2023-08-12T14:31:06;11.82;;;9.57;;
17844;SDS011;9047;53.486;10.218;2023-08-12T14:33:33;10.65;;;8.20;;
17844;SDS011;9047;53.486;10.218;2023-08-12T14:36:09;10.25;;;8.68;;
17844;SDS011;9047;53.486;10.218;2023-08-12T14:38:39;9.93;;;7.93;;
17844;SDS011;9047;53.486;10.218;2023-08-12T14:41:06;10.30;;;7.43;;
17844;SDS011;9047;53.486;10.218;2023-08-12T14:43:32;9.95;;;8.48;;
17844;SDS011;9047;53.486;10.218;2023-08-12T14:46:01;11.10;;;8.80;;
17844;SDS011;9047;53.486;10.218;2023-08-12T14:48:28;10.90;;;8.35;;
17844;SDS011;9047;53.486;10.218;2023-08-12T14:51:03;12.00;;;8.98;;
17844;SDS011;9047;53.486;10.218;2023-08-12T14:53:30;10.82;;;8.70;;